createdAt,value
2022-08-11T00:00:13.831Z,20.07
2022-08-11T00:01:21.967Z,20.11
2022-08-11T00:02:30.029Z,20.07
2022-08-11T00:03:42.546Z,19.97
2022-08-11T00:04:41.664Z,19.88
2022-08-11T00:05:52.613Z,19.94
2022-08-11T00:06:58.263Z,20.02
2022-08-11T00:08:02.524Z,19.97
2022-08-11T00:09:09.819Z,20.02
2022-08-11T00:10:19.118Z,19.90
2022-08-11T00:12:44.390Z,19.87
2022-08-11T00:13:50.966Z,19.80
2022-08-11T00:15:02.060Z,19.91
2022-08-11T00:16:18.671Z,19.91
2022-08-11T00:17:25.890Z,19.85
2022-08-11T00:18:34.025Z,19.84
2022-08-11T00:20:14.428Z,19.80
2022-08-11T00:20:53.203Z,19.93
2022-08-11T00:22:04.762Z,19.88
2022-08-11T00:23:11.770Z,19.86
2022-08-11T00:24:17.206Z,19.87
2022-08-11T00:25:23.275Z,19.94
2022-08-11T00:26:28.982Z,19.91
2022-08-11T00:27:36.320Z,19.95
2022-08-11T00:28:40.306Z,20.02
2022-08-11T00:29:56.278Z,19.99
2022-08-11T00:32:20.132Z,20.08
2022-08-11T00:33:41.334Z,19.96
2022-08-11T00:34:34.937Z,19.87
2022-08-11T00:35:51.366Z,19.70
2022-08-11T00:38:19.349Z,19.84
2022-08-11T00:39:28.467Z,19.91
2022-08-11T00:40:40.058Z,19.94
2022-08-11T00:42:06.534Z,19.90
2022-08-11T00:43:23.843Z,19.97
2022-08-11T00:44:31.404Z,19.90
2022-08-11T00:45:44.429Z,19.82
2022-08-11T00:47:06.573Z,19.92
2022-08-11T00:48:45.634Z,19.83
2022-08-11T00:51:59.802Z,20.05
2022-08-11T00:53:33.753Z,20.01
2022-08-11T00:54:41.296Z,19.97
2022-08-11T00:56:05.465Z,19.82
2022-08-11T00:57:37.064Z,19.78
2022-08-11T00:58:48.285Z,19.93
2022-08-11T01:00:16.660Z,20.05
2022-08-11T01:01:28.845Z,19.77
2022-08-11T01:02:58.005Z,19.94
2022-08-11T01:04:23.769Z,19.93
2022-08-11T01:06:03.069Z,19.99
2022-08-11T01:08:02.332Z,20.02
2022-08-11T01:08:42.453Z,20.09
2022-08-11T01:09:55.908Z,20.17
2022-08-11T01:11:26.934Z,20.20
2022-08-11T01:12:47.689Z,20.01
2022-08-11T01:14:11.561Z,19.99
2022-08-11T01:15:41.457Z,20.02
2022-08-11T01:16:55.974Z,19.92
2022-08-11T01:18:19.107Z,20.02
2022-08-11T01:20:45.323Z,20.14
2022-08-11T01:21:20.286Z,19.95
2022-08-11T01:22:30.984Z,20.01
2022-08-11T01:24:11.918Z,19.80
2022-08-11T01:25:29.421Z,19.85
2022-08-11T01:26:42.515Z,19.67
2022-08-11T01:28:25.607Z,19.78
2022-08-11T01:29:49.638Z,19.82
2022-08-11T01:31:14.961Z,19.72
2022-08-11T01:32:47.819Z,19.63
2022-08-11T01:34:13.756Z,19.62
2022-08-11T01:35:32.751Z,19.59
2022-08-11T01:36:56.688Z,19.71
2022-08-11T01:38:29.424Z,19.85
2022-08-11T01:40:02.994Z,19.83
2022-08-11T01:41:29.624Z,19.85
2022-08-11T01:43:09.705Z,19.77
2022-08-11T01:44:56.251Z,19.72
2022-08-11T01:46:17.842Z,19.74
2022-08-11T01:47:52.638Z,19.77
2022-08-11T01:50:05.974Z,19.72
2022-08-11T01:51:16.970Z,19.71
2022-08-11T01:52:34.900Z,19.73
2022-08-11T01:54:05.415Z,19.56
2022-08-11T01:55:22.789Z,19.70
2022-08-11T02:21:22.641Z,19.58
2022-08-11T02:22:52.250Z,19.51
2022-08-11T02:24:05.183Z,19.61
2022-08-11T02:25:11.363Z,19.61
2022-08-11T02:26:32.883Z,19.53
2022-08-11T02:27:46.144Z,19.54
2022-08-11T02:29:22.549Z,19.49
2022-08-11T02:30:28.479Z,19.51
2022-08-11T02:32:24.671Z,19.62
2022-08-11T02:33:26.484Z,19.61
2022-08-11T02:34:59.963Z,19.53
2022-08-11T02:36:21.938Z,19.58
2022-08-11T02:37:43.275Z,19.54
2022-08-11T02:38:59.208Z,19.50
2022-08-11T02:40:24.464Z,19.52
2022-08-11T02:42:04.079Z,19.41
2022-08-11T02:43:14.654Z,19.49
2022-08-11T02:44:28.683Z,19.51
2022-08-11T02:45:59.949Z,19.52
2022-08-11T02:47:18.503Z,19.52
2022-08-11T02:49:12.376Z,19.49
2022-08-11T02:50:25.909Z,19.46
2022-08-11T02:51:46.127Z,19.47
2022-08-11T02:52:53.545Z,19.38
2022-08-11T02:54:22.144Z,19.31
2022-08-11T02:55:57.304Z,19.42
2022-08-11T02:57:21.990Z,19.50
2022-08-11T02:59:16.915Z,19.44
2022-08-11T03:00:24.806Z,19.37
2022-08-11T03:01:32.956Z,19.30
2022-08-11T03:02:57.326Z,19.51
2022-08-11T03:04:11.450Z,19.57
2022-08-11T03:05:37.249Z,19.49
2022-08-11T03:06:59.607Z,19.50
2022-08-11T03:08:22.183Z,19.27
2022-08-11T03:09:39.952Z,19.32
2022-08-11T03:11:30.121Z,19.40
2022-08-11T03:12:55.780Z,19.40
2022-08-11T03:14:31.169Z,19.36
2022-08-11T03:16:16.650Z,19.30
2022-08-11T03:17:44.717Z,19.33
2022-08-11T03:18:58.072Z,19.08
2022-08-11T03:20:22.112Z,19.24
2022-08-11T03:22:02.996Z,19.38
2022-08-11T03:23:04.376Z,19.29
2022-08-11T03:24:19.496Z,19.45
2022-08-11T03:25:33.033Z,19.30
2022-08-11T03:26:40.606Z,19.43
2022-08-11T03:27:56.752Z,19.46
2022-08-11T03:29:25.132Z,19.50
2022-08-11T03:30:51.463Z,19.41
2022-08-11T03:32:03.639Z,19.33
2022-08-11T03:33:39.563Z,19.38
2022-08-11T03:34:50.855Z,19.63
2022-08-11T03:36:10.161Z,19.51
2022-08-11T03:39:15.577Z,19.45
2022-08-11T03:40:47.475Z,19.34
2022-08-11T03:42:07.644Z,19.38
2022-08-11T03:43:35.079Z,19.41
2022-08-11T03:44:44.328Z,19.55
2022-08-11T03:45:59.645Z,19.57
2022-08-11T03:47:19.643Z,19.62
2022-08-11T03:48:32.257Z,19.66
2022-08-11T03:51:25.088Z,19.66
2022-08-11T03:52:48.917Z,19.61
2022-08-11T03:54:17.853Z,19.62
2022-08-11T03:56:00.147Z,19.56
2022-08-11T03:57:34.073Z,19.62
2022-08-11T03:59:08.584Z,19.66
2022-08-11T04:00:31.635Z,19.51
2022-08-11T04:01:56.922Z,19.60
2022-08-11T04:03:31.769Z,19.63
2022-08-11T04:05:17.700Z,19.74
2022-08-11T04:06:38.286Z,19.77
2022-08-11T04:07:55.337Z,19.66
2022-08-11T04:09:41.301Z,19.87
2022-08-11T04:10:51.200Z,19.90
2022-08-11T04:12:14.783Z,19.81
2022-08-11T04:13:55.139Z,19.88
2022-08-11T04:15:22.472Z,19.74
2022-08-11T04:16:39.226Z,19.68
2022-08-11T04:17:48.541Z,19.59
2022-08-11T04:19:01.277Z,19.79
2022-08-11T04:20:27.444Z,19.81
2022-08-11T04:21:52.120Z,19.79
2022-08-11T04:24:36.589Z,19.82
2022-08-11T04:24:54.001Z,19.85
2022-08-11T04:26:18.514Z,19.75
2022-08-11T04:27:36.860Z,19.66
2022-08-11T04:28:50.199Z,19.68
2022-08-11T04:30:01.907Z,19.93
2022-08-11T04:31:06.391Z,20.21
2022-08-11T04:32:24.508Z,20.17
2022-08-11T04:33:46.273Z,20.23
2022-08-11T04:35:10.844Z,20.15
2022-08-11T04:36:26.143Z,20.33
2022-08-11T04:37:53.603Z,20.42
2022-08-11T04:39:07.954Z,20.31
2022-08-11T04:40:33.807Z,20.36
2022-08-11T04:42:18.909Z,20.28
2022-08-11T04:44:06.235Z,20.09
2022-08-11T04:45:12.815Z,20.10
2022-08-11T04:46:46.733Z,20.04
2022-08-11T04:50:29.089Z,20.25
2022-08-11T04:52:16.529Z,20.07
2022-08-11T04:53:52.263Z,19.87
2022-08-11T04:55:46.923Z,19.81
2022-08-11T04:57:14.266Z,20.22
2022-08-11T04:58:58.517Z,20.40
2022-08-11T05:00:26.864Z,20.15
2022-08-11T05:01:42.906Z,20.43
2022-08-11T05:03:15.830Z,20.51
2022-08-11T05:05:01.548Z,20.35
2022-08-11T05:06:26.012Z,20.42
2022-08-11T05:08:07.382Z,20.33
2022-08-11T05:09:26.601Z,20.43
2022-08-11T05:11:06.180Z,20.47
2022-08-11T05:12:47.136Z,20.29
2022-08-11T05:14:15.020Z,20.47
2022-08-11T05:15:51.362Z,20.71
2022-08-11T05:17:16.135Z,21.00
2022-08-11T05:18:42.171Z,21.12
2022-08-11T05:20:06.984Z,21.05
2022-08-11T05:21:45.055Z,21.27
2022-08-11T05:23:01.861Z,21.39
2022-08-11T05:24:35.029Z,21.58
2022-08-11T05:26:44.461Z,21.41
2022-08-11T05:27:28.586Z,21.46
2022-08-11T05:28:54.898Z,21.19
2022-08-11T05:30:25.940Z,21.48
2022-08-11T05:31:53.989Z,21.90
2022-08-11T05:33:33.564Z,22.19
2022-08-11T05:34:56.521Z,22.22
2022-08-11T05:37:30.156Z,22.37
2022-08-11T05:38:54.351Z,22.31
2022-08-11T05:40:31.908Z,22.88
2022-08-11T05:42:02.756Z,23.08
2022-08-11T05:43:29.262Z,23.62
2022-08-11T05:44:53.353Z,23.12
2022-08-11T05:46:18.901Z,22.75
2022-08-11T05:47:45.558Z,22.81
2022-08-11T05:49:09.888Z,22.67
2022-08-11T05:50:34.456Z,22.71
2022-08-11T05:52:05.701Z,22.74
2022-08-11T05:53:40.289Z,22.90
2022-08-11T05:55:06.293Z,22.74
2022-08-11T05:58:59.460Z,22.16
2022-08-11T06:00:09.024Z,21.99
2022-08-11T06:01:16.836Z,22.05
2022-08-11T06:02:21.254Z,21.97
2022-08-11T06:03:28.690Z,21.96
2022-08-11T06:04:34.363Z,21.92
2022-08-11T06:05:44.062Z,21.93
2022-08-11T06:07:01.547Z,21.63
2022-08-11T06:08:10.737Z,21.39
2022-08-11T06:09:18.396Z,21.44
2022-08-11T06:10:29.012Z,21.54
2022-08-11T06:11:43.765Z,21.67
2022-08-11T06:12:50.210Z,21.48
2022-08-11T06:13:58.204Z,21.43
2022-08-11T06:15:07.913Z,21.47
2022-08-11T06:16:16.537Z,21.45
2022-08-11T06:18:42.789Z,21.51
2022-08-11T06:19:49.048Z,21.54
2022-08-11T06:22:12.600Z,21.70
2022-08-11T06:23:19.537Z,21.48
2022-08-11T06:24:23.808Z,21.60
2022-08-11T06:25:36.214Z,21.66
2022-08-11T06:27:08.668Z,21.45
2022-08-11T06:27:51.955Z,21.40
2022-08-11T06:28:59.075Z,21.59
2022-08-11T06:30:07.469Z,21.36
2022-08-11T06:31:17.929Z,21.23
2022-08-11T06:32:28.702Z,21.15
2022-08-11T06:33:40.415Z,21.15
2022-08-11T06:35:05.694Z,21.10
2022-08-11T06:36:35.993Z,21.27
2022-08-11T06:38:02.245Z,21.00
2022-08-11T06:39:25.250Z,21.06
2022-08-11T06:41:15.896Z,21.02
2022-08-11T06:42:30.132Z,20.94
2022-08-11T06:43:55.474Z,21.01
2022-08-11T06:45:02.153Z,20.88
2022-08-11T06:46:09.643Z,20.85
2022-08-11T06:47:20.027Z,20.73
2022-08-11T06:48:24.300Z,20.64
2022-08-11T06:49:53.863Z,20.66
2022-08-11T06:51:21.663Z,20.80
2022-08-11T06:52:39.342Z,20.83
2022-08-11T06:54:04.776Z,21.00
2022-08-11T06:55:55.643Z,20.99
2022-08-11T06:56:29.008Z,20.91
2022-08-11T06:57:58.114Z,20.99
2022-08-11T06:59:25.452Z,20.77
2022-08-11T07:00:34.342Z,20.73
2022-08-11T07:02:03.119Z,20.59
2022-08-11T07:03:17.136Z,20.40
2022-08-11T07:04:44.387Z,20.20
2022-08-11T07:05:54.809Z,20.15
2022-08-11T07:07:41.279Z,20.00
2022-08-11T07:09:24.947Z,20.21
2022-08-11T07:11:00.328Z,20.09
2022-08-11T07:12:42.087Z,19.92
2022-08-11T07:14:11.094Z,19.99
2022-08-11T07:16:12.334Z,19.98
2022-08-11T07:16:43.774Z,20.08
2022-08-11T07:18:12.827Z,19.98
2022-08-11T07:19:40.109Z,19.99
2022-08-11T07:21:03.918Z,20.26
2022-08-11T07:22:25.908Z,20.33
2022-08-11T07:23:52.699Z,20.47
2022-08-11T07:25:33.204Z,20.59
2022-08-11T07:26:59.416Z,20.96
2022-08-11T07:28:47.233Z,21.25
2022-08-11T07:29:55.430Z,21.45
2022-08-11T07:31:05.965Z,21.78
2022-08-11T07:32:16.565Z,21.95
2022-08-11T07:34:38.816Z,22.08
2022-08-11T07:35:48.801Z,22.29
2022-08-11T07:36:58.495Z,22.39
2022-08-11T07:38:07.155Z,22.12
2022-08-11T07:39:19.475Z,22.03
2022-08-11T07:40:28.616Z,21.84
2022-08-11T07:41:34.716Z,21.81
2022-08-11T07:42:38.810Z,21.84
2022-08-11T07:43:51.174Z,21.83
2022-08-11T07:45:15.261Z,21.68
2022-08-11T07:46:40.327Z,21.22
2022-08-11T07:48:04.818Z,21.30
2022-08-11T07:49:29.523Z,21.43
2022-08-11T07:50:56.157Z,21.61
2022-08-11T07:52:21.587Z,21.59
2022-08-11T07:53:30.809Z,21.39
2022-08-11T07:54:47.334Z,21.41
2022-08-11T07:55:53.497Z,21.56
2022-08-11T07:57:07.330Z,21.38
2022-08-11T07:58:23.417Z,21.15
2022-08-11T07:59:57.594Z,21.26
2022-08-11T08:01:22.209Z,21.39
2022-08-11T08:02:43.702Z,21.36
2022-08-11T08:04:06.823Z,21.43
2022-08-11T08:05:30.462Z,21.59
2022-08-11T08:06:58.578Z,21.67
2022-08-11T08:08:20.492Z,21.59
2022-08-11T08:09:46.616Z,21.50
2022-08-11T08:11:08.383Z,21.52
2022-08-11T08:12:36.651Z,21.60
2022-08-11T08:13:58.144Z,21.76
2022-08-11T08:15:25.603Z,21.95
2022-08-11T08:16:53.860Z,22.16
2022-08-11T08:18:09.567Z,21.87
2022-08-11T08:19:08.287Z,21.91
2022-08-11T08:20:24.383Z,21.85
2022-08-11T08:21:29.471Z,21.84
2022-08-11T08:22:37.760Z,21.90
2022-08-11T08:23:47.445Z,22.01
2022-08-11T08:24:54.318Z,21.73
2022-08-11T08:25:58.373Z,21.78
2022-08-11T08:27:05.043Z,21.53
2022-08-11T08:28:15.606Z,21.63
2022-08-11T08:29:40.546Z,21.54
2022-08-11T08:30:50.384Z,21.63
2022-08-11T08:31:57.493Z,21.71
2022-08-11T08:33:04.674Z,21.84
2022-08-11T08:34:11.095Z,21.94
2022-08-11T08:35:16.355Z,22.27
2022-08-11T08:36:23.951Z,22.06
2022-08-11T08:37:46.398Z,22.07
2022-08-11T08:38:38.118Z,22.35
2022-08-11T08:39:43.495Z,22.75
2022-08-11T08:40:52.451Z,22.65
2022-08-11T08:42:06.870Z,22.83
2022-08-11T08:43:18.428Z,23.33
2022-08-11T08:44:38.506Z,24.35
2022-08-11T08:45:36.604Z,25.30
2022-08-11T08:46:44.940Z,25.64
2022-08-11T08:48:03.601Z,25.72
2022-08-11T08:49:12.896Z,26.54
2022-08-11T08:50:27.770Z,26.64
2022-08-11T08:52:02.559Z,26.58
2022-08-11T08:52:50.655Z,25.68
2022-08-11T08:53:58.341Z,24.92
2022-08-11T08:55:04.924Z,24.71
2022-08-11T08:56:09.973Z,25.81
2022-08-11T08:57:16.717Z,26.05
2022-08-11T08:58:23.489Z,24.79
2022-08-11T08:59:44.967Z,24.32
2022-08-11T09:00:41.481Z,24.23
2022-08-11T09:02:00.441Z,24.87
2022-08-11T09:03:23.199Z,25.15
2022-08-11T09:04:20.376Z,24.87
2022-08-11T09:05:21.818Z,25.18
2022-08-11T09:06:26.477Z,25.58
2022-08-11T09:07:39.116Z,25.77
2022-08-11T09:08:42.430Z,26.04
2022-08-11T09:09:49.312Z,26.67
2022-08-11T09:11:13.767Z,26.65
2022-08-11T09:12:36.019Z,26.57
2022-08-11T09:13:28.184Z,26.44
2022-08-11T09:15:04.682Z,26.38
2022-08-11T09:16:11.712Z,26.56
2022-08-11T09:17:15.626Z,26.37
2022-08-11T09:18:19.378Z,27.19
2022-08-11T09:19:26.819Z,26.78
2022-08-11T09:20:33.766Z,26.74
2022-08-11T09:21:48.926Z,26.55
2022-08-11T09:24:40.013Z,26.28
2022-08-11T09:26:04.453Z,26.11
2022-08-11T09:27:08.433Z,26.05
2022-08-11T09:28:15.901Z,26.37
2022-08-11T09:29:23.266Z,26.03
2022-08-11T09:30:33.557Z,25.77
2022-08-11T09:31:40.274Z,26.14
2022-08-11T09:32:45.006Z,26.59
2022-08-11T09:33:50.211Z,26.68
2022-08-11T09:34:54.996Z,27.20
2022-08-11T09:36:02.750Z,27.13
2022-08-11T09:37:54.419Z,26.77
2022-08-11T09:38:53.196Z,26.69
2022-08-11T10:04:47.530Z,26.99
2022-08-11T10:06:22.240Z,27.13
2022-08-11T10:07:28.085Z,27.18
2022-08-11T10:08:34.523Z,26.92
2022-08-11T10:09:54.579Z,26.88
2022-08-11T10:10:58.912Z,27.15
2022-08-11T10:12:05.459Z,27.44
2022-08-11T10:14:31.647Z,27.03
2022-08-11T10:14:50.539Z,27.03
2022-08-11T10:16:03.600Z,26.65
2022-08-11T10:17:09.214Z,26.78
2022-08-11T10:18:36.406Z,26.88
2022-08-11T10:19:44.554Z,26.63
2022-08-11T10:20:54.058Z,26.83
2022-08-11T10:22:17.940Z,27.00
2022-08-11T10:24:01.096Z,27.11
2022-08-11T10:25:08.097Z,27.11
2022-08-11T10:26:32.280Z,27.79
2022-08-11T10:28:17.738Z,27.79
2022-08-11T10:29:09.662Z,28.19
2022-08-11T10:30:10.105Z,27.91
2022-08-11T10:31:37.613Z,28.10
2022-08-11T10:33:00.253Z,28.06
2022-08-11T10:34:09.240Z,27.92
2022-08-11T10:35:16.538Z,28.28
2022-08-11T10:36:25.606Z,28.08
2022-08-11T10:38:08.003Z,27.14
2022-08-11T10:38:37.509Z,27.41
2022-08-11T10:39:44.208Z,27.90
2022-08-11T10:40:51.355Z,27.87
2022-08-11T10:42:26.125Z,28.15
2022-08-11T10:44:01.192Z,28.21
2022-08-11T10:44:27.989Z,28.62
2022-08-11T10:45:54.426Z,28.94
2022-08-11T10:47:18.206Z,28.72
2022-08-11T10:48:26.065Z,28.57
2022-08-11T10:49:31.148Z,28.17
2022-08-11T10:50:54.070Z,28.42
2022-08-11T10:52:17.105Z,28.17
2022-08-11T10:53:40.061Z,28.40
2022-08-11T10:55:04.348Z,28.17
2022-08-11T10:56:28.117Z,27.83
2022-08-11T10:58:04.834Z,28.09
2022-08-11T10:59:03.826Z,27.65
2022-08-11T11:00:14.779Z,27.26
2022-08-11T11:01:25.941Z,27.41
2022-08-11T11:02:29.388Z,27.77
2022-08-11T11:03:37.590Z,27.72
2022-08-11T11:06:32.933Z,27.98
2022-08-11T11:07:58.150Z,27.77
2022-08-11T11:09:12.347Z,27.51
2022-08-11T11:10:17.845Z,27.43
2022-08-11T11:11:27.173Z,27.77
2022-08-11T11:13:00.687Z,27.39
2022-08-11T11:14:24.581Z,27.73
2022-08-11T11:15:51.968Z,27.80
2022-08-11T11:17:16.958Z,28.05
2022-08-11T11:18:27.517Z,27.71
2022-08-11T11:19:39.898Z,27.45
2022-08-11T11:21:02.635Z,27.30
2022-08-11T11:22:26.681Z,27.47
2022-08-11T11:23:48.674Z,27.55
2022-08-11T11:25:08.601Z,27.89
2022-08-11T11:26:28.557Z,27.93
2022-08-11T11:28:01.465Z,28.15
2022-08-11T11:29:41.960Z,27.98
2022-08-11T11:32:16.508Z,27.75
2022-08-11T11:33:24.687Z,27.32
2022-08-11T11:34:48.562Z,27.42
2022-08-11T11:36:12.244Z,27.52
2022-08-11T11:37:19.162Z,27.62
2022-08-11T11:38:25.003Z,27.73
2022-08-11T11:39:31.723Z,27.85
2022-08-11T11:40:38.211Z,28.01
2022-08-11T11:41:43.409Z,27.93
2022-08-11T11:42:48.801Z,27.47
2022-08-11T11:43:56.800Z,27.59
2022-08-11T11:45:03.318Z,27.54
2022-08-11T11:46:11.185Z,27.23
2022-08-11T11:47:21.892Z,27.48
2022-08-11T11:48:28.779Z,27.38
2022-08-11T11:49:36.635Z,27.53
2022-08-11T11:50:41.340Z,27.53
2022-08-11T11:51:50.282Z,27.48
2022-08-11T11:52:56.952Z,27.84
2022-08-11T11:54:03.919Z,27.58
2022-08-11T11:55:11.513Z,27.69
2022-08-11T11:56:20.323Z,28.07
2022-08-11T11:57:59.025Z,28.16
2022-08-11T11:59:14.656Z,28.25
2022-08-11T12:00:43.300Z,28.26
2022-08-11T12:01:50.457Z,27.81
2022-08-11T12:02:51.952Z,28.05
2022-08-11T12:04:01.632Z,28.01
2022-08-11T12:05:08.697Z,27.69
2022-08-11T12:06:18.711Z,27.96
2022-08-11T12:07:42.581Z,28.04
2022-08-11T12:08:50.325Z,27.81
2022-08-11T12:09:54.825Z,28.04
2022-08-11T12:11:21.799Z,27.80
2022-08-11T12:12:47.745Z,27.55
2022-08-11T12:13:53.985Z,27.70
2022-08-11T12:14:57.552Z,27.41
2022-08-11T12:16:33.912Z,27.56
2022-08-11T12:17:13.482Z,27.66
2022-08-11T12:18:18.133Z,27.50
2022-08-11T12:19:25.572Z,27.73
2022-08-11T12:20:34.278Z,27.59
2022-08-11T12:21:42.823Z,27.60
2022-08-11T12:23:10.405Z,27.60
2022-08-11T12:24:32.018Z,27.33
2022-08-11T12:27:25.405Z,27.75
2022-08-11T12:28:31.873Z,27.54
2022-08-11T12:29:41.425Z,27.58
2022-08-11T12:30:47.505Z,27.61
2022-08-11T12:31:55.690Z,27.73
2022-08-11T12:32:58.816Z,27.95
2022-08-11T12:34:09.841Z,27.52
2022-08-11T12:35:16.576Z,27.45
2022-08-11T12:36:22.520Z,27.47
2022-08-11T12:38:51.329Z,27.82
2022-08-11T12:41:11.282Z,27.92
2022-08-11T12:41:42.561Z,27.70
2022-08-11T12:43:21.246Z,28.18
2022-08-11T12:44:25.363Z,28.00
2022-08-11T12:45:31.895Z,27.66
2022-08-11T12:46:39.900Z,27.43
2022-08-11T12:48:59.191Z,27.24
2022-08-11T12:49:42.002Z,27.33
2022-08-11T12:51:08.696Z,27.39
2022-08-11T12:52:16.057Z,27.49
2022-08-11T12:53:26.499Z,27.57
2022-08-11T12:54:53.362Z,27.41
2022-08-11T12:56:18.286Z,27.20
2022-08-11T12:57:59.806Z,27.04
2022-08-11T12:59:22.214Z,27.01
2022-08-11T13:00:46.320Z,27.44
2022-08-11T13:02:10.555Z,27.48
2022-08-11T13:03:39.989Z,27.58
2022-08-11T13:04:59.348Z,27.67
2022-08-11T13:06:06.676Z,27.68
2022-08-11T13:07:12.107Z,27.63
2022-08-11T13:08:17.381Z,27.58
2022-08-11T13:09:27.906Z,27.50
2022-08-11T13:10:55.224Z,27.50
2022-08-11T13:12:18.447Z,27.46
2022-08-11T13:13:52.776Z,27.36
2022-08-11T13:14:28.507Z,27.45
2022-08-11T13:15:32.618Z,27.54
2022-08-11T13:16:42.906Z,27.72
2022-08-11T13:17:50.668Z,27.83
2022-08-11T13:18:56.368Z,28.04
2022-08-11T13:20:01.493Z,27.91
2022-08-11T13:21:06.623Z,27.58
2022-08-11T13:22:12.517Z,27.72
2022-08-11T13:23:17.645Z,27.59
2022-08-11T13:24:25.936Z,27.58
2022-08-11T13:25:32.515Z,27.41
2022-08-11T13:26:48.529Z,27.27
2022-08-11T13:29:00.225Z,27.67
2022-08-11T13:30:19.358Z,27.68
2022-08-11T13:31:25.045Z,27.56
2022-08-11T13:32:29.281Z,27.12
2022-08-11T13:33:36.819Z,27.08
2022-08-11T13:34:43.650Z,27.04
2022-08-11T13:35:49.981Z,27.15
2022-08-11T13:36:57.520Z,27.36
2022-08-11T13:38:19.781Z,27.57
2022-08-11T13:39:15.738Z,27.63
2022-08-11T13:40:33.298Z,27.88
2022-08-11T13:42:54.444Z,27.46
2022-08-11T13:43:59.289Z,27.62
2022-08-11T13:45:08.665Z,27.57
2022-08-11T13:46:23.557Z,27.56
2022-08-11T13:47:30.461Z,27.58
2022-08-11T13:48:34.640Z,27.72
2022-08-11T13:49:41.340Z,27.49
2022-08-11T13:51:05.674Z,27.39
2022-08-11T13:52:14.752Z,27.38
2022-08-11T13:53:23.545Z,27.01
2022-08-11T13:54:29.940Z,26.94
2022-08-11T13:55:52.317Z,27.22
2022-08-11T13:56:47.781Z,27.32
2022-08-11T13:58:08.584Z,27.42
2022-08-11T13:59:03.771Z,27.50
2022-08-11T14:00:19.063Z,27.47
2022-08-11T14:02:20.565Z,27.46
2022-08-11T14:02:30.758Z,27.32
2022-08-11T14:04:29.847Z,27.34
2022-08-11T14:04:45.262Z,27.12
2022-08-11T14:05:52.349Z,26.84
2022-08-11T14:06:59.951Z,26.80
2022-08-11T14:09:23.557Z,26.99
2022-08-11T14:10:34.577Z,26.69
2022-08-11T14:12:21.847Z,26.73
2022-08-11T14:13:42.690Z,26.87
2022-08-11T14:14:42.289Z,26.83
2022-08-11T14:15:52.301Z,26.87
2022-08-11T14:16:58.375Z,26.94
2022-08-11T14:18:05.637Z,26.95
2022-08-11T14:19:14.089Z,26.91
2022-08-11T14:20:39.393Z,27.18
2022-08-11T14:21:54.236Z,27.18
2022-08-11T14:22:57.850Z,27.27
2022-08-11T14:24:06.070Z,27.59
2022-08-11T14:25:11.813Z,27.73
2022-08-11T14:26:25.567Z,27.87
2022-08-11T14:28:32.556Z,27.62
2022-08-11T14:28:43.991Z,27.55
2022-08-11T14:29:48.858Z,27.82
2022-08-11T14:31:01.468Z,27.93
2022-08-11T14:32:07.147Z,27.73
2022-08-11T14:33:16.989Z,27.73
2022-08-11T14:34:20.655Z,27.73
2022-08-11T14:35:27.554Z,27.63
2022-08-11T14:36:41.613Z,27.58
2022-08-11T14:37:46.493Z,27.42
2022-08-11T14:38:55.025Z,27.61
2022-08-11T14:40:03.989Z,27.54
2022-08-11T14:41:28.234Z,27.58
2022-08-11T14:42:48.979Z,27.69
2022-08-11T14:44:14.782Z,27.72
2022-08-11T14:45:58.339Z,27.87
2022-08-11T14:47:24.549Z,28.19
2022-08-11T14:48:12.093Z,28.00
2022-08-11T14:49:16.670Z,27.86
2022-08-11T14:50:23.581Z,27.91
2022-08-11T14:51:31.655Z,27.91
2022-08-11T14:52:37.795Z,27.99
2022-08-11T14:53:58.506Z,28.18
2022-08-11T14:55:07.672Z,28.32
2022-08-11T14:56:33.641Z,28.55
2022-08-11T14:58:04.690Z,28.60
2022-08-11T14:58:44.727Z,28.70
2022-08-11T14:59:52.411Z,28.58
2022-08-11T15:01:01.383Z,28.62
2022-08-11T15:03:37.289Z,28.32
2022-08-11T15:04:41.421Z,28.06
2022-08-11T15:05:57.679Z,28.26
2022-08-11T15:06:59.851Z,28.45
2022-08-11T15:08:04.595Z,28.32
2022-08-11T15:09:09.454Z,28.50
2022-08-11T15:10:17.487Z,28.64
2022-08-11T15:11:46.211Z,28.73
2022-08-11T15:12:50.318Z,28.56
2022-08-11T15:13:54.750Z,28.30
2022-08-11T15:15:20.121Z,28.34
2022-08-11T15:16:46.941Z,28.41
2022-08-11T15:17:54.995Z,28.24
2022-08-11T15:18:59.364Z,28.31
2022-08-11T15:20:35.148Z,28.15
2022-08-11T15:21:57.367Z,27.89
2022-08-11T15:23:18.943Z,28.10
2022-08-11T15:24:27.950Z,28.03
2022-08-11T15:25:35.066Z,28.13
2022-08-11T15:27:01.538Z,28.30
2022-08-11T15:28:25.928Z,28.23
2022-08-11T15:29:51.055Z,28.14
2022-08-11T15:31:17.364Z,27.90
2022-08-11T15:32:25.317Z,27.92
2022-08-11T15:33:50.263Z,27.76
2022-08-11T15:35:21.387Z,27.93
2022-08-11T15:36:46.411Z,27.83
2022-08-11T15:37:53.982Z,27.81
2022-08-11T15:39:03.596Z,28.01
2022-08-11T15:40:45.703Z,27.98
2022-08-11T15:42:29.050Z,27.84
2022-08-11T15:44:04.636Z,27.59
2022-08-11T15:45:30.593Z,27.43
2022-08-11T15:46:39.535Z,27.51
2022-08-11T15:47:57.031Z,27.37
2022-08-11T15:49:06.222Z,27.41
2022-08-11T15:50:14.217Z,27.33
2022-08-11T15:51:31.363Z,27.37
2022-08-11T15:52:42.603Z,27.25
2022-08-11T15:55:03.769Z,27.29
2022-08-11T15:56:09.867Z,27.26
2022-08-11T15:57:39.861Z,27.15
2022-08-11T15:59:41.234Z,27.21
2022-08-11T16:00:32.701Z,27.36
2022-08-11T16:01:58.282Z,27.24
2022-08-11T16:03:23.647Z,27.27
2022-08-11T16:04:32.694Z,27.34
2022-08-11T16:05:46.728Z,27.23
2022-08-11T16:06:58.215Z,27.15
2022-08-11T16:08:03.636Z,27.04
2022-08-11T16:09:18.416Z,27.03
2022-08-11T16:10:24.969Z,27.03
2022-08-11T16:11:29.473Z,27.11
2022-08-11T16:12:45.194Z,27.09
2022-08-11T16:14:10.773Z,26.98
2022-08-11T16:15:34.473Z,26.92
2022-08-11T16:16:39.758Z,26.96
2022-08-11T16:17:51.983Z,26.89
2022-08-11T16:18:59.475Z,26.90
2022-08-11T16:20:09.626Z,26.94
2022-08-11T16:22:40.241Z,26.81
2022-08-11T16:23:48.510Z,26.66
2022-08-11T16:27:06.891Z,26.71
2022-08-11T16:27:10.835Z,26.69
2022-08-11T16:27:14.013Z,26.63
2022-08-11T16:28:21.210Z,26.55
2022-08-11T16:29:26.291Z,26.60
2022-08-11T16:30:35.130Z,26.58
2022-08-11T16:31:41.281Z,26.45
2022-08-11T16:32:51.059Z,26.50
2022-08-11T16:33:56.439Z,26.60
2022-08-11T16:35:21.848Z,26.57
2022-08-11T16:36:48.597Z,26.46
2022-08-11T16:38:13.699Z,26.44
2022-08-11T16:39:19.832Z,26.47
2022-08-11T16:40:28.142Z,26.34
2022-08-11T16:41:53.560Z,26.29
2022-08-11T16:43:17.439Z,26.39
2022-08-11T16:44:41.751Z,26.38
2022-08-11T16:46:07.653Z,26.23
2022-08-11T16:47:17.597Z,26.23
2022-08-11T16:48:37.465Z,26.16
2022-08-11T16:49:40.557Z,26.16
2022-08-11T16:50:44.760Z,26.11
2022-08-11T16:51:49.670Z,26.11
2022-08-11T16:52:53.369Z,26.15
2022-08-11T16:54:04.387Z,26.10
2022-08-11T16:55:06.942Z,26.10
2022-08-11T16:56:15.760Z,26.15
2022-08-11T16:57:42.862Z,26.10
2022-08-11T16:59:09.911Z,26.11
2022-08-11T17:00:17.477Z,26.03
2022-08-11T17:01:22.770Z,26.09
2022-08-11T17:02:49.736Z,26.09
2022-08-11T17:04:16.534Z,26.10
2022-08-11T17:05:53.839Z,25.98
2022-08-11T17:07:23.743Z,25.98
2022-08-11T17:08:40.009Z,25.95
2022-08-11T17:10:31.825Z,25.99
2022-08-11T17:11:30.308Z,25.93
2022-08-11T17:12:56.584Z,25.92
2022-08-11T17:14:06.514Z,25.90
2022-08-11T17:15:17.803Z,25.88
2022-08-11T17:16:24.225Z,25.91
2022-08-11T17:17:40.168Z,25.81
2022-08-11T17:20:39.930Z,25.87
2022-08-11T17:21:23.508Z,25.78
2022-08-11T17:22:47.451Z,25.74
2022-08-11T17:23:55.472Z,25.71
2022-08-11T17:25:01.053Z,25.63
2022-08-11T17:26:05.843Z,25.68
2022-08-11T17:27:15.627Z,25.64
2022-08-11T17:28:21.463Z,25.69
2022-08-11T17:29:53.746Z,25.68
2022-08-11T17:31:20.011Z,25.66
2022-08-11T17:32:57.082Z,25.66
2022-08-11T17:34:10.189Z,25.68
2022-08-11T17:35:32.788Z,25.61
2022-08-11T17:36:44.564Z,25.62
2022-08-11T17:37:46.593Z,25.52
2022-08-11T17:38:52.695Z,25.47
2022-08-11T17:39:58.666Z,25.47
2022-08-11T17:41:27.804Z,25.48
2022-08-11T17:42:51.986Z,25.56
2022-08-11T17:44:16.593Z,25.53
2022-08-11T17:45:41.961Z,25.33
2022-08-11T17:48:26.757Z,25.49
2022-08-11T17:49:34.692Z,25.34
2022-08-11T17:50:42.459Z,25.38
2022-08-11T17:52:07.625Z,25.35
2022-08-11T17:53:33.690Z,25.39
2022-08-11T17:54:59.895Z,25.38
2022-08-11T17:56:25.458Z,25.37
2022-08-11T17:57:50.944Z,25.36